sensor_id;sensor_type;location;lat;lon;timestamp;P1;durP1;ratioP1;P2;durP2;ratioP2
17947;SDS011;9099;47.958;11.366;2023-04-15T00:02:04;2.92;;;1.58;;
17947;SDS011;9099;47.958;11.366;2023-04-15T00:04:39;2.47;;;1.60;;
17947;SDS011;9099;47.958;11.366;2023-04-15T00:07:08;2.05;;;1.65;;
17947;SDS011;9099;47.958;11.366;2023-04-15T00:09:35;1.88;;;1.50;;
17947;SDS011;9099;47.958;11.366;2023-04-15T00:12:02;3.88;;;1.73;;
17947;SDS011;9099;47.958;11.366;2023-04-15T00:14:29;1.60;;;1.50;;
17947;SDS011;9099;47.958;11.366;2023-04-15T00:16:56;2.72;;;2.05;;
17947;SDS011;9099;47.958;11.366;2023-04-15T00:19:23;2.33;;;1.73;;
17947;SDS011;9099;47.958;11.366;2023-04-15T00:21:49;2.13;;;1.80;;
17947;SDS011;9099;47.958;11.366;2023-04-15T00:24:18;3.33;;;1.70;;
17947;SDS011;9099;47.958;11.366;2023-04-15T00:26:44;2.05;;;1.70;;
17947;SDS011;9099;47.958;11.366;2023-04-15T00:29:11;3.22;;;1.80;;
17947;SDS011;9099;47.958;11.366;2023-04-15T00:31:39;2.10;;;1.90;;
17947;SDS011;9099;47.958;11.366;2023-04-15T00:34:06;4.00;;;2.03;;
17947;SDS011;9099;47.958;11.366;2023-04-15T00:36:33;2.22;;;1.50;;
17947;SDS011;9099;47.958;11.366;2023-04-15T00:39:00;2.95;;;1.98;;
17947;SDS011;9099;47.958;11.366;2023-04-15T00:41:29;2.72;;;1.60;;
17947;SDS011;9099;47.958;11.366;2023-04-15T00:43:56;2.83;;;1.90;;
17947;SDS011;9099;47.958;11.366;2023-04-15T00:46:23;1.60;;;1.50;;
17947;SDS011;9099;47.958;11.366;2023-04-15T00:48:52;2.22;;;1.60;;
17947;SDS011;9099;47.958;11.366;2023-04-15T00:51:20;2.47;;;1.92;;
17947;SDS011;9099;47.958;11.366;2023-04-15T00:53:47;3.40;;;2.05;;
17947;SDS011;9099;47.958;11.366;2023-04-15T00:56:13;2.13;;;1.77;;
17947;SDS011;9099;47.958;11.366;2023-04-15T00:58:42;3.00;;;1.95;;
17947;SDS011;9099;47.958;11.366;2023-04-15T01:01:09;3.88;;;1.98;;
17947;SDS011;9099;47.958;11.366;2023-04-15T01:03:36;2.50;;;1.80;;
17947;SDS011;9099;47.958;11.366;2023-04-15T01:06:03;2.05;;;1.65;;
17947;SDS011;9099;47.958;11.366;2023-04-15T01:08:30;2.95;;;1.60;;
17947;SDS011;9099;47.958;11.366;2023-04-15T01:10:57;2.33;;;1.67;;
17947;SDS011;9099;47.958;11.366;2023-04-15T01:13:26;1.55;;;1.45;;
17947;SDS011;9099;47.958;11.366;2023-04-15T01:15:54;2.33;;;1.83;;
17947;SDS011;9099;47.958;11.366;2023-04-15T01:18:22;2.72;;;2.05;;
17947;SDS011;9099;47.958;11.366;2023-04-15T01:20:49;2.83;;;1.90;;
17947;SDS011;9099;47.958;11.366;2023-04-15T01:23:16;3.33;;;1.70;;
17947;SDS011;9099;47.958;11.366;2023-04-15T01:25:44;2.40;;;1.67;;
17947;SDS011;9099;47.958;11.366;2023-04-15T01:28:12;1.50;;;1.40;;
17947;SDS011;9099;47.958;11.366;2023-04-15T01:30:38;1.67;;;1.40;;
17947;SDS011;9099;47.958;11.366;2023-04-15T01:33:05;2.97;;;1.48;;
17947;SDS011;9099;47.958;11.366;2023-04-15T01:35:32;3.10;;;1.80;;
17947;SDS011;9099;47.958;11.366;2023-04-15T01:38:01;2.72;;;1.60;;
17947;SDS011;9099;47.958;11.366;2023-04-15T01:40:31;2.00;;;1.48;;
17947;SDS011;9099;47.958;11.366;2023-04-15T01:42:59;2.10;;;1.67;;
17947;SDS011;9099;47.958;11.366;2023-04-15T01:45:26;2.58;;;1.60;;
17947;SDS011;9099;47.958;11.366;2023-04-15T01:47:53;2.15;;;1.50;;
17947;SDS011;9099;47.958;11.366;2023-04-15T01:50:20;2.15;;;1.70;;
17947;SDS011;9099;47.958;11.366;2023-04-15T01:52:47;4.32;;;1.65;;
17947;SDS011;9099;47.958;11.366;2023-04-15T01:55:14;2.42;;;1.60;;
17947;SDS011;9099;47.958;11.366;2023-04-15T01:57:41;1.13;;;1.13;;
17947;SDS011;9099;47.958;11.366;2023-04-15T02:00:09;1.70;;;1.42;;
17947;SDS011;9099;47.958;11.366;2023-04-15T02:02:37;2.03;;;1.75;;
17947;SDS011;9099;47.958;11.366;2023-04-15T02:05:04;1.48;;;1.38;;
17947;SDS011;9099;47.958;11.366;2023-04-15T02:07:31;2.28;;;1.40;;
17947;SDS011;9099;47.958;11.366;2023-04-15T02:09:58;2.42;;;1.42;;
17947;SDS011;9099;47.958;11.366;2023-04-15T02:12:25;1.85;;;1.23;;
17947;SDS011;9099;47.958;11.366;2023-04-15T02:14:52;3.50;;;1.25;;
17947;SDS011;9099;47.958;11.366;2023-04-15T02:17:21;1.77;;;1.15;;
17947;SDS011;9099;47.958;11.366;2023-04-15T02:19:48;1.70;;;1.17;;
17947;SDS011;9099;47.958;11.366;2023-04-15T02:22:14;1.92;;;1.13;;
17947;SDS011;9099;47.958;11.366;2023-04-15T02:24:42;2.20;;;1.40;;
17947;SDS011;9099;47.958;11.366;2023-04-15T02:27:14;2.55;;;1.58;;
17947;SDS011;9099;47.958;11.366;2023-04-15T02:29:42;2.00;;;1.20;;
17947;SDS011;9099;47.958;11.366;2023-04-15T02:32:09;2.47;;;1.30;;
17947;SDS011;9099;47.958;11.366;2023-04-15T02:34:38;3.47;;;1.33;;
17947;SDS011;9099;47.958;11.366;2023-04-15T02:37:06;2.28;;;1.50;;
17947;SDS011;9099;47.958;11.366;2023-04-15T02:39:33;3.22;;;1.60;;
17947;SDS011;9099;47.958;11.366;2023-04-15T02:42:00;2.70;;;1.67;;
17947;SDS011;9099;47.958;11.366;2023-04-15T02:44:29;1.55;;;1.15;;
17947;SDS011;9099;47.958;11.366;2023-04-15T02:46:56;2.08;;;1.40;;
17947;SDS011;9099;47.958;11.366;2023-04-15T02:49:24;3.65;;;1.50;;
17947;SDS011;9099;47.958;11.366;2023-04-15T02:51:55;3.28;;;2.20;;
17947;SDS011;9099;47.958;11.366;2023-04-15T02:54:22;2.00;;;1.60;;
17947;SDS011;9099;47.958;11.366;2023-04-15T02:56:49;1.42;;;1.30;;
17947;SDS011;9099;47.958;11.366;2023-04-15T02:59:19;1.33;;;1.23;;
17947;SDS011;9099;47.958;11.366;2023-04-15T03:01:46;2.90;;;1.33;;
17947;SDS011;9099;47.958;11.366;2023-04-15T03:04:13;1.95;;;1.30;;
17947;SDS011;9099;47.958;11.366;2023-04-15T03:06:40;3.03;;;1.50;;
17947;SDS011;9099;47.958;11.366;2023-04-15T03:09:08;1.83;;;1.27;;
17947;SDS011;9099;47.958;11.366;2023-04-15T03:11:35;1.58;;;1.40;;
17947;SDS011;9099;47.958;11.366;2023-04-15T03:14:04;1.75;;;1.30;;
17947;SDS011;9099;47.958;11.366;2023-04-15T03:16:31;2.40;;;1.60;;
17947;SDS011;9099;47.958;11.366;2023-04-15T03:18:58;3.15;;;1.40;;
17947;SDS011;9099;47.958;11.366;2023-04-15T03:21:25;3.42;;;1.27;;
17947;SDS011;9099;47.958;11.366;2023-04-15T03:23:51;1.85;;;1.20;;
17947;SDS011;9099;47.958;11.366;2023-04-15T03:26:26;2.35;;;1.20;;
17947;SDS011;9099;47.958;11.366;2023-04-15T03:28:53;1.65;;;1.10;;
17947;SDS011;9099;47.958;11.366;2023-04-15T03:31:20;1.58;;;1.00;;
17947;SDS011;9099;47.958;11.366;2023-04-15T03:33:47;2.67;;;1.20;;
17947;SDS011;9099;47.958;11.366;2023-04-15T03:36:14;1.40;;;1.10;;
17947;SDS011;9099;47.958;11.366;2023-04-15T03:38:41;2.22;;;1.30;;
17947;SDS011;9099;47.958;11.366;2023-04-15T03:41:08;2.00;;;1.20;;
17947;SDS011;9099;47.958;11.366;2023-04-15T03:43:36;2.25;;;1.23;;
17947;SDS011;9099;47.958;11.366;2023-04-15T03:46:03;3.30;;;1.40;;
17947;SDS011;9099;47.958;11.366;2023-04-15T03:48:30;1.73;;;0.95;;
17947;SDS011;9099;47.958;11.366;2023-04-15T03:50:57;2.10;;;1.10;;
17947;SDS011;9099;47.958;11.366;2023-04-15T03:53:24;1.60;;;1.00;;
17947;SDS011;9099;47.958;11.366;2023-04-15T03:55:51;1.95;;;1.15;;
17947;SDS011;9099;47.958;11.366;2023-04-15T03:58:18;1.60;;;0.98;;
17947;SDS011;9099;47.958;11.366;2023-04-15T04:00:46;2.38;;;1.17;;
17947;SDS011;9099;47.958;11.366;2023-04-15T04:03:13;2.05;;;1.42;;
17947;SDS011;9099;47.958;11.366;2023-04-15T04:05:39;2.53;;;1.30;;
17947;SDS011;9099;47.958;11.366;2023-04-15T04:08:08;1.63;;;1.25;;
17947;SDS011;9099;47.958;11.366;2023-04-15T04:10:37;1.55;;;1.15;;
17947;SDS011;9099;47.958;11.366;2023-04-15T04:13:04;3.58;;;1.48;;
17947;SDS011;9099;47.958;11.366;2023-04-15T04:15:31;1.20;;;1.00;;
17947;SDS011;9099;47.958;11.366;2023-04-15T04:18:00;1.63;;;0.98;;
17947;SDS011;9099;47.958;11.366;2023-04-15T04:20:27;1.77;;;1.17;;
17947;SDS011;9099;47.958;11.366;2023-04-15T04:22:56;1.58;;;0.88;;
17947;SDS011;9099;47.958;11.366;2023-04-15T04:25:22;2.13;;;1.33;;
17947;SDS011;9099;47.958;11.366;2023-04-15T04:27:49;3.58;;;1.70;;
17947;SDS011;9099;47.958;11.366;2023-04-15T04:30:16;2.50;;;1.20;;
17947;SDS011;9099;47.958;11.366;2023-04-15T04:32:43;2.38;;;1.20;;
17947;SDS011;9099;47.958;11.366;2023-04-15T04:35:12;2.40;;;1.15;;
17947;SDS011;9099;47.958;11.366;2023-04-15T04:37:38;1.58;;;1.08;;
17947;SDS011;9099;47.958;11.366;2023-04-15T04:40:06;2.20;;;1.20;;
17947;SDS011;9099;47.958;11.366;2023-04-15T04:42:34;1.30;;;0.90;;
17947;SDS011;9099;47.958;11.366;2023-04-15T04:45:01;2.38;;;1.30;;
17947;SDS011;9099;47.958;11.366;2023-04-15T04:47:28;1.48;;;1.15;;
17947;SDS011;9099;47.958;11.366;2023-04-15T04:49:55;2.33;;;1.20;;
17947;SDS011;9099;47.958;11.366;2023-04-15T04:52:23;1.52;;;1.13;;
17947;SDS011;9099;47.958;11.366;2023-04-15T04:54:50;1.30;;;1.13;;
17947;SDS011;9099;47.958;11.366;2023-04-15T04:57:17;1.58;;;1.17;;
17947;SDS011;9099;47.958;11.366;2023-04-15T04:59:44;2.78;;;1.17;;
17947;SDS011;9099;47.958;11.366;2023-04-15T05:02:10;2.40;;;1.58;;
17947;SDS011;9099;47.958;11.366;2023-04-15T05:04:37;2.13;;;1.20;;
17947;SDS011;9099;47.958;11.366;2023-04-15T05:07:05;1.90;;;1.27;;
17947;SDS011;9099;47.958;11.366;2023-04-15T05:09:34;1.38;;;1.25;;
17947;SDS011;9099;47.958;11.366;2023-04-15T05:12:01;2.08;;;1.17;;
17947;SDS011;9099;47.958;11.366;2023-04-15T05:14:28;2.75;;;1.20;;
17947;SDS011;9099;47.958;11.366;2023-04-15T05:16:56;3.03;;;1.23;;
17947;SDS011;9099;47.958;11.366;2023-04-15T05:19:23;2.22;;;1.02;;
17947;SDS011;9099;47.958;11.366;2023-04-15T05:21:49;2.92;;;1.33;;
17947;SDS011;9099;47.958;11.366;2023-04-15T05:24:16;1.63;;;0.90;;
17947;SDS011;9099;47.958;11.366;2023-04-15T05:26:45;1.35;;;1.17;;
17947;SDS011;9099;47.958;11.366;2023-04-15T05:29:12;2.30;;;1.20;;
17947;SDS011;9099;47.958;11.366;2023-04-15T05:31:38;2.20;;;0.90;;
17947;SDS011;9099;47.958;11.366;2023-04-15T05:34:06;2.15;;;1.20;;
17947;SDS011;9099;47.958;11.366;2023-04-15T05:36:33;2.20;;;0.90;;
17947;SDS011;9099;47.958;11.366;2023-04-15T05:39:00;1.27;;;0.90;;
17947;SDS011;9099;47.958;11.366;2023-04-15T05:41:27;1.45;;;0.93;;
17947;SDS011;9099;47.958;11.366;2023-04-15T05:43:55;2.08;;;0.95;;
17947;SDS011;9099;47.958;11.366;2023-04-15T05:46:22;1.67;;;1.00;;
17947;SDS011;9099;47.958;11.366;2023-04-15T05:48:48;2.33;;;1.10;;
17947;SDS011;9099;47.958;11.366;2023-04-15T05:51:15;1.42;;;0.90;;
17947;SDS011;9099;47.958;11.366;2023-04-15T05:53:42;2.53;;;1.00;;
17947;SDS011;9099;47.958;11.366;2023-04-15T05:56:10;3.17;;;1.08;;
17947;SDS011;9099;47.958;11.366;2023-04-15T05:58:36;1.25;;;0.88;;
17947;SDS011;9099;47.958;11.366;2023-04-15T06:01:05;1.05;;;0.75;;
17947;SDS011;9099;47.958;11.366;2023-04-15T06:03:32;2.33;;;1.00;;
17947;SDS011;9099;47.958;11.366;2023-04-15T06:05:59;1.10;;;0.90;;
17947;SDS011;9099;47.958;11.366;2023-04-15T06:08:26;1.63;;;0.68;;
17947;SDS011;9099;47.958;11.366;2023-04-15T06:10:53;1.20;;;0.98;;
17947;SDS011;9099;47.958;11.366;2023-04-15T06:13:20;1.88;;;0.95;;
17947;SDS011;9099;47.958;11.366;2023-04-15T06:15:47;1.52;;;0.70;;
17947;SDS011;9099;47.958;11.366;2023-04-15T06:18:15;1.25;;;0.90;;
17947;SDS011;9099;47.958;11.366;2023-04-15T06:20:42;1.70;;;0.80;;
17947;SDS011;9099;47.958;11.366;2023-04-15T06:23:09;1.55;;;0.90;;
17947;SDS011;9099;47.958;11.366;2023-04-15T06:25:36;1.60;;;0.90;;
17947;SDS011;9099;47.958;11.366;2023-04-15T06:28:03;2.30;;;1.10;;
17947;SDS011;9099;47.958;11.366;2023-04-15T06:30:30;1.45;;;0.88;;
17947;SDS011;9099;47.958;11.366;2023-04-15T06:32:57;1.50;;;1.20;;
17947;SDS011;9099;47.958;11.366;2023-04-15T06:35:25;1.40;;;0.75;;
17947;SDS011;9099;47.958;11.366;2023-04-15T06:37:52;1.65;;;0.80;;
17947;SDS011;9099;47.958;11.366;2023-04-15T06:40:19;3.05;;;0.93;;
17947;SDS011;9099;47.958;11.366;2023-04-15T06:42:46;1.20;;;0.95;;
17947;SDS011;9099;47.958;11.366;2023-04-15T06:45:13;1.45;;;0.90;;
17947;SDS011;9099;47.958;11.366;2023-04-15T06:47:40;1.08;;;0.73;;
17947;SDS011;9099;47.958;11.366;2023-04-15T06:50:07;1.33;;;0.88;;
17947;SDS011;9099;47.958;11.366;2023-04-15T06:52:36;1.60;;;0.70;;
17947;SDS011;9099;47.958;11.366;2023-04-15T06:55:04;2.63;;;1.10;;
17947;SDS011;9099;47.958;11.366;2023-04-15T06:57:32;2.65;;;0.98;;
17947;SDS011;9099;47.958;11.366;2023-04-15T06:59:58;3.65;;;1.67;;
17947;SDS011;9099;47.958;11.366;2023-04-15T07:02:25;1.75;;;1.30;;
17947;SDS011;9099;47.958;11.366;2023-04-15T07:04:52;1.35;;;0.95;;
17947;SDS011;9099;47.958;11.366;2023-04-15T07:07:19;3.22;;;1.08;;
17947;SDS011;9099;47.958;11.366;2023-04-15T07:09:47;1.92;;;0.70;;
17947;SDS011;9099;47.958;11.366;2023-04-15T07:12:17;1.92;;;1.30;;
17947;SDS011;9099;47.958;11.366;2023-04-15T07:14:45;1.67;;;1.23;;
17947;SDS011;9099;47.958;11.366;2023-04-15T07:17:11;1.20;;;0.90;;
17947;SDS011;9099;47.958;11.366;2023-04-15T07:19:38;2.17;;;0.90;;
17947;SDS011;9099;47.958;11.366;2023-04-15T07:22:05;1.83;;;1.00;;
17947;SDS011;9099;47.958;11.366;2023-04-15T07:24:32;3.13;;;0.95;;
17947;SDS011;9099;47.958;11.366;2023-04-15T07:27:00;0.90;;;0.75;;
17947;SDS011;9099;47.958;11.366;2023-04-15T07:29:28;1.35;;;1.10;;
17947;SDS011;9099;47.958;11.366;2023-04-15T07:31:55;1.30;;;0.90;;
17947;SDS011;9099;47.958;11.366;2023-04-15T07:34:22;2.25;;;1.00;;
17947;SDS011;9099;47.958;11.366;2023-04-15T07:36:49;1.38;;;0.90;;
17947;SDS011;9099;47.958;11.366;2023-04-15T07:39:16;1.60;;;0.93;;
17947;SDS011;9099;47.958;11.366;2023-04-15T07:41:43;2.55;;;0.90;;
17947;SDS011;9099;47.958;11.366;2023-04-15T07:44:11;1.65;;;0.80;;
17947;SDS011;9099;47.958;11.366;2023-04-15T07:46:38;1.67;;;1.20;;
17947;SDS011;9099;47.958;11.366;2023-04-15T07:49:05;1.88;;;0.80;;
17947;SDS011;9099;47.958;11.366;2023-04-15T07:51:32;3.20;;;1.00;;
17947;SDS011;9099;47.958;11.366;2023-04-15T07:53:59;1.13;;;0.90;;
17947;SDS011;9099;47.958;11.366;2023-04-15T07:56:28;1.20;;;1.05;;
17947;SDS011;9099;47.958;11.366;2023-04-15T07:58:55;1.20;;;1.10;;
17947;SDS011;9099;47.958;11.366;2023-04-15T08:01:23;2.72;;;1.08;;
17947;SDS011;9099;47.958;11.366;2023-04-15T08:03:50;2.35;;;0.90;;
17947;SDS011;9099;47.958;11.366;2023-04-15T08:06:17;1.10;;;1.00;;
17947;SDS011;9099;47.958;11.366;2023-04-15T08:08:44;3.10;;;1.10;;
17947;SDS011;9099;47.958;11.366;2023-04-15T08:11:11;0.90;;;0.73;;
17947;SDS011;9099;47.958;11.366;2023-04-15T08:13:38;2.70;;;0.82;;
17947;SDS011;9099;47.958;11.366;2023-04-15T08:16:18;1.50;;;1.00;;
17947;SDS011;9099;47.958;11.366;2023-04-15T08:18:48;2.08;;;1.02;;
17947;SDS011;9099;47.958;11.366;2023-04-15T08:21:17;1.30;;;0.90;;
17947;SDS011;9099;47.958;11.366;2023-04-15T08:23:45;1.83;;;0.80;;
17947;SDS011;9099;47.958;11.366;2023-04-15T08:26:13;2.25;;;0.98;;
17947;SDS011;9099;47.958;11.366;2023-04-15T08:28:40;1.95;;;1.00;;
17947;SDS011;9099;47.958;11.366;2023-04-15T08:31:08;1.45;;;1.00;;
17947;SDS011;9099;47.958;11.366;2023-04-15T08:33:35;2.10;;;1.08;;
17947;SDS011;9099;47.958;11.366;2023-04-15T08:36:04;1.92;;;1.15;;
17947;SDS011;9099;47.958;11.366;2023-04-15T08:38:32;1.17;;;1.13;;
17947;SDS011;9099;47.958;11.366;2023-04-15T08:40:59;1.00;;;0.90;;
17947;SDS011;9099;47.958;11.366;2023-04-15T08:43:36;2.83;;;1.00;;
17947;SDS011;9099;47.958;11.366;2023-04-15T08:46:07;2.40;;;1.00;;
17947;SDS011;9099;47.958;11.366;2023-04-15T08:48:35;2.78;;;1.85;;
17947;SDS011;9099;47.958;11.366;2023-04-15T08:51:05;1.30;;;1.00;;
17947;SDS011;9099;47.958;11.366;2023-04-15T08:53:33;2.50;;;1.40;;
17947;SDS011;9099;47.958;11.366;2023-04-15T08:56:01;5.78;;;1.40;;
17947;SDS011;9099;47.958;11.366;2023-04-15T08:58:31;1.92;;;1.30;;
17947;SDS011;9099;47.958;11.366;2023-04-15T09:00:58;2.05;;;1.50;;
17947;SDS011;9099;47.958;11.366;2023-04-15T09:03:26;2.53;;;1.40;;
17947;SDS011;9099;47.958;11.366;2023-04-15T09:05:54;1.88;;;1.35;;
17947;SDS011;9099;47.958;11.366;2023-04-15T09:08:23;2.90;;;1.38;;
17947;SDS011;9099;47.958;11.366;2023-04-15T09:10:50;2.22;;;1.20;;
17947;SDS011;9099;47.958;11.366;2023-04-15T09:13:18;3.22;;;1.80;;
17947;SDS011;9099;47.958;11.366;2023-04-15T09:15:46;2.10;;;1.58;;
17947;SDS011;9099;47.958;11.366;2023-04-15T09:18:13;2.30;;;1.45;;
17947;SDS011;9099;47.958;11.366;2023-04-15T09:20:52;1.45;;;1.25;;
17947;SDS011;9099;47.958;11.366;2023-04-15T09:26:42;2.33;;;1.83;;
17947;SDS011;9099;47.958;11.366;2023-04-15T09:29:10;3.55;;;1.88;;
17947;SDS011;9099;47.958;11.366;2023-04-15T09:31:37;2.22;;;1.52;;
17947;SDS011;9099;47.958;11.366;2023-04-15T09:34:05;1.92;;;1.63;;
17947;SDS011;9099;47.958;11.366;2023-04-15T09:36:37;2.92;;;2.05;;
17947;SDS011;9099;47.958;11.366;2023-04-15T09:39:17;4.15;;;1.83;;
17947;SDS011;9099;47.958;11.366;2023-04-15T09:41:46;3.78;;;1.55;;
17947;SDS011;9099;47.958;11.366;2023-04-15T09:44:29;2.05;;;1.85;;
17947;SDS011;9099;47.958;11.366;2023-04-15T09:46:55;3.28;;;1.75;;
17947;SDS011;9099;47.958;11.366;2023-04-15T09:49:22;1.75;;;1.50;;
17947;SDS011;9099;47.958;11.366;2023-04-15T09:51:49;2.40;;;1.83;;
17947;SDS011;9099;47.958;11.366;2023-04-15T09:54:17;3.15;;;1.83;;
17947;SDS011;9099;47.958;11.366;2023-04-15T09:56:46;1.80;;;1.55;;
17947;SDS011;9099;47.958;11.366;2023-04-15T09:59:13;1.73;;;1.40;;
17947;SDS011;9099;47.958;11.366;2023-04-15T10:01:40;1.63;;;1.33;;
17947;SDS011;9099;47.958;11.366;2023-04-15T10:04:08;2.10;;;1.90;;
17947;SDS011;9099;47.958;11.366;2023-04-15T10:06:35;4.93;;;2.05;;
17947;SDS011;9099;47.958;11.366;2023-04-15T10:09:03;2.50;;;2.13;;
17947;SDS011;9099;47.958;11.366;2023-04-15T10:11:32;1.92;;;1.83;;
17947;SDS011;9099;47.958;11.366;2023-04-15T10:14:01;2.63;;;2.00;;
17947;SDS011;9099;47.958;11.366;2023-04-15T10:16:28;2.17;;;1.98;;
17947;SDS011;9099;47.958;11.366;2023-04-15T10:18:58;3.50;;;2.20;;
17947;SDS011;9099;47.958;11.366;2023-04-15T10:21:28;1.88;;;1.67;;
17947;SDS011;9099;47.958;11.366;2023-04-15T10:23:56;2.33;;;2.05;;
17947;SDS011;9099;47.958;11.366;2023-04-15T10:26:24;1.85;;;1.75;;
17947;SDS011;9099;47.958;11.366;2023-04-15T10:28:51;3.42;;;2.13;;
17947;SDS011;9099;47.958;11.366;2023-04-15T10:31:20;2.20;;;2.00;;
17947;SDS011;9099;47.958;11.366;2023-04-15T10:33:47;2.17;;;1.67;;
17947;SDS011;9099;47.958;11.366;2023-04-15T10:36:16;5.03;;;2.35;;
17947;SDS011;9099;47.958;11.366;2023-04-15T10:38:44;3.58;;;2.00;;
17947;SDS011;9099;47.958;11.366;2023-04-15T10:41:12;2.92;;;2.20;;
17947;SDS011;9099;47.958;11.366;2023-04-15T10:43:44;4.00;;;2.38;;
17947;SDS011;9099;47.958;11.366;2023-04-15T10:46:12;4.75;;;2.22;;
17947;SDS011;9099;47.958;11.366;2023-04-15T10:48:47;2.22;;;1.90;;
17947;SDS011;9099;47.958;11.366;2023-04-15T10:51:27;2.65;;;2.25;;
17947;SDS011;9099;47.958;11.366;2023-04-15T10:53:55;6.32;;;2.50;;
17947;SDS011;9099;47.958;11.366;2023-04-15T10:56:23;5.20;;;2.47;;
17947;SDS011;9099;47.958;11.366;2023-04-15T10:58:51;2.80;;;2.03;;
17947;SDS011;9099;47.958;11.366;2023-04-15T11:01:18;1.90;;;1.80;;
17947;SDS011;9099;47.958;11.366;2023-04-15T11:03:48;2.50;;;1.90;;
17947;SDS011;9099;47.958;11.366;2023-04-15T11:06:16;2.00;;;1.80;;
17947;SDS011;9099;47.958;11.366;2023-04-15T11:08:52;4.63;;;2.10;;
17947;SDS011;9099;47.958;11.366;2023-04-15T11:14:32;3.10;;;1.80;;
17947;SDS011;9099;47.958;11.366;2023-04-15T11:16:59;4.32;;;2.00;;
17947;SDS011;9099;47.958;11.366;2023-04-15T11:19:35;2.85;;;1.85;;
17947;SDS011;9099;47.958;11.366;2023-04-15T11:22:06;1.85;;;1.73;;
17947;SDS011;9099;47.958;11.366;2023-04-15T11:24:33;4.03;;;1.77;;
17947;SDS011;9099;47.958;11.366;2023-04-15T11:27:01;2.50;;;1.65;;
17947;SDS011;9099;47.958;11.366;2023-04-15T11:29:28;1.95;;;1.60;;
17947;SDS011;9099;47.958;11.366;2023-04-15T11:32:03;1.60;;;1.50;;
17947;SDS011;9099;47.958;11.366;2023-04-15T11:34:31;1.90;;;1.70;;
17947;SDS011;9099;47.958;11.366;2023-04-15T11:37:01;2.90;;;1.63;;
17947;SDS011;9099;47.958;11.366;2023-04-15T11:39:29;2.75;;;1.50;;
17947;SDS011;9099;47.958;11.366;2023-04-15T11:41:56;2.30;;;1.85;;
17947;SDS011;9099;47.958;11.366;2023-04-15T11:44:23;2.50;;;1.60;;
17947;SDS011;9099;47.958;11.366;2023-04-15T11:46:50;3.05;;;1.83;;
17947;SDS011;9099;47.958;11.366;2023-04-15T11:49:26;2.40;;;1.50;;
17947;SDS011;9099;47.958;11.366;2023-04-15T11:51:54;2.78;;;1.88;;
17947;SDS011;9099;47.958;11.366;2023-04-15T11:54:22;2.67;;;1.65;;
17947;SDS011;9099;47.958;11.366;2023-04-15T11:56:49;1.85;;;1.60;;
17947;SDS011;9099;47.958;11.366;2023-04-15T11:59:18;2.58;;;1.70;;
17947;SDS011;9099;47.958;11.366;2023-04-15T12:01:45;2.47;;;1.73;;
17947;SDS011;9099;47.958;11.366;2023-04-15T12:04:13;2.17;;;1.80;;
17947;SDS011;9099;47.958;11.366;2023-04-15T12:06:41;2.00;;;1.80;;
17947;SDS011;9099;47.958;11.366;2023-04-15T12:09:09;2.75;;;1.55;;
17947;SDS011;9099;47.958;11.366;2023-04-15T12:11:39;2.15;;;1.55;;
17947;SDS011;9099;47.958;11.366;2023-04-15T12:14:12;2.15;;;1.58;;
17947;SDS011;9099;47.958;11.366;2023-04-15T12:16:45;1.60;;;1.50;;
17947;SDS011;9099;47.958;11.366;2023-04-15T12:19:14;3.80;;;1.50;;
17947;SDS011;9099;47.958;11.366;2023-04-15T12:21:43;2.28;;;1.88;;
17947;SDS011;9099;47.958;11.366;2023-04-15T12:24:11;2.42;;;1.88;;
17947;SDS011;9099;47.958;11.366;2023-04-15T12:26:44;2.53;;;1.90;;
17947;SDS011;9099;47.958;11.366;2023-04-15T12:29:13;3.22;;;1.98;;
17947;SDS011;9099;47.958;11.366;2023-04-15T12:31:48;2.33;;;1.90;;
17947;SDS011;9099;47.958;11.366;2023-04-15T12:34:16;3.67;;;2.45;;
17947;SDS011;9099;47.958;11.366;2023-04-15T12:36:50;3.70;;;2.75;;
17947;SDS011;9099;47.958;11.366;2023-04-15T12:39:17;4.22;;;2.45;;
17947;SDS011;9099;47.958;11.366;2023-04-15T12:41:49;3.60;;;2.33;;
17947;SDS011;9099;47.958;11.366;2023-04-15T12:44:16;2.60;;;2.05;;
17947;SDS011;9099;47.958;11.366;2023-04-15T12:46:44;2.90;;;2.20;;
17947;SDS011;9099;47.958;11.366;2023-04-15T12:49:11;2.78;;;2.30;;
17947;SDS011;9099;47.958;11.366;2023-04-15T12:51:40;2.42;;;2.22;;
17947;SDS011;9099;47.958;11.366;2023-04-15T12:54:06;2.80;;;2.40;;
17947;SDS011;9099;47.958;11.366;2023-04-15T12:56:33;2.70;;;2.50;;
17947;SDS011;9099;47.958;11.366;2023-04-15T12:59:01;2.38;;;2.17;;
17947;SDS011;9099;47.958;11.366;2023-04-15T13:01:28;3.30;;;2.63;;
17947;SDS011;9099;47.958;11.366;2023-04-15T13:03:55;3.28;;;2.50;;
17947;SDS011;9099;47.958;11.366;2023-04-15T13:06:22;2.88;;;2.67;;
17947;SDS011;9099;47.958;11.366;2023-04-15T13:08:49;3.92;;;2.47;;
17947;SDS011;9099;47.958;11.366;2023-04-15T13:11:19;2.28;;;2.10;;
17947;SDS011;9099;47.958;11.366;2023-04-15T13:13:45;3.55;;;2.20;;
17947;SDS011;9099;47.958;11.366;2023-04-15T13:16:14;4.15;;;2.25;;
17947;SDS011;9099;47.958;11.366;2023-04-15T13:18:40;3.22;;;2.20;;
17947;SDS011;9099;47.958;11.366;2023-04-15T13:21:07;3.13;;;2.30;;
17947;SDS011;9099;47.958;11.366;2023-04-15T13:23:35;3.90;;;2.38;;
17947;SDS011;9099;47.958;11.366;2023-04-15T13:26:01;1.98;;;1.85;;
17947;SDS011;9099;47.958;11.366;2023-04-15T13:28:28;3.08;;;2.20;;
17947;SDS011;9099;47.958;11.366;2023-04-15T13:30:55;3.47;;;2.58;;
17947;SDS011;9099;47.958;11.366;2023-04-15T13:33:23;2.70;;;2.22;;
17947;SDS011;9099;47.958;11.366;2023-04-15T13:35:50;2.95;;;2.17;;
17947;SDS011;9099;47.958;11.366;2023-04-15T13:38:17;3.38;;;2.22;;
17947;SDS011;9099;47.958;11.366;2023-04-15T13:40:44;2.17;;;1.98;;
17947;SDS011;9099;47.958;11.366;2023-04-15T13:43:11;2.30;;;2.10;;
17947;SDS011;9099;47.958;11.366;2023-04-15T13:45:38;2.53;;;1.88;;
17947;SDS011;9099;47.958;11.366;2023-04-15T13:48:05;2.75;;;2.30;;
17947;SDS011;9099;47.958;11.366;2023-04-15T13:50:33;3.50;;;2.22;;
17947;SDS011;9099;47.958;11.366;2023-04-15T13:53:00;3.35;;;2.20;;
17947;SDS011;9099;47.958;11.366;2023-04-15T13:55:27;2.10;;;1.85;;
17947;SDS011;9099;47.958;11.366;2023-04-15T13:57:55;1.92;;;1.83;;
17947;SDS011;9099;47.958;11.366;2023-04-15T14:00:22;3.15;;;2.05;;
17947;SDS011;9099;47.958;11.366;2023-04-15T14:02:48;2.38;;;2.10;;
17947;SDS011;9099;47.958;11.366;2023-04-15T14:05:15;2.10;;;1.90;;
17947;SDS011;9099;47.958;11.366;2023-04-15T14:07:44;2.00;;;1.90;;
17947;SDS011;9099;47.958;11.366;2023-04-15T14:10:11;2.05;;;1.90;;
17947;SDS011;9099;47.958;11.366;2023-04-15T14:12:38;2.15;;;1.95;;
17947;SDS011;9099;47.958;11.366;2023-04-15T14:15:05;4.53;;;1.95;;
17947;SDS011;9099;47.958;11.366;2023-04-15T14:17:32;5.07;;;2.33;;
17947;SDS011;9099;47.958;11.366;2023-04-15T14:19:59;2.03;;;1.70;;
17947;SDS011;9099;47.958;11.366;2023-04-15T14:22:26;3.70;;;2.03;;
17947;SDS011;9099;47.958;11.366;2023-04-15T14:24:54;2.70;;;1.67;;
17947;SDS011;9099;47.958;11.366;2023-04-15T14:27:21;1.85;;;1.63;;
17947;SDS011;9099;47.958;11.366;2023-04-15T14:29:48;2.50;;;1.60;;
17947;SDS011;9099;47.958;11.366;2023-04-15T14:32:15;2.10;;;1.80;;
17947;SDS011;9099;47.958;11.366;2023-04-15T14:34:42;2.00;;;1.90;;
17947;SDS011;9099;47.958;11.366;2023-04-15T14:37:09;2.30;;;1.60;;
17947;SDS011;9099;47.958;11.366;2023-04-15T14:39:35;2.50;;;2.00;;
17947;SDS011;9099;47.958;11.366;2023-04-15T14:42:04;2.60;;;2.03;;
17947;SDS011;9099;47.958;11.366;2023-04-15T14:44:31;2.10;;;1.90;;
17947;SDS011;9099;47.958;11.366;2023-04-15T14:46:57;2.22;;;1.52;;
17947;SDS011;9099;47.958;11.366;2023-04-15T14:49:24;2.35;;;1.70;;
17947;SDS011;9099;47.958;11.366;2023-04-15T14:51:51;2.08;;;1.65;;
17947;SDS011;9099;47.958;11.366;2023-04-15T14:54:18;3.22;;;1.70;;
17947;SDS011;9099;47.958;11.366;2023-04-15T14:56:45;2.40;;;1.55;;
17947;SDS011;9099;47.958;11.366;2023-04-15T14:59:13;1.88;;;1.60;;